Warsaw, Missouri
Current Conditions -  °F | °C
As of 10:15 AM on Wednesday 28 Jan 2015 (Local Time) from KGLY Reporting Station
Haze Haze  
Wind Chill: 54°   Ceiling: Unl
Heat Index: 54°   Visibility: 3mi
Dew Point: 37°   Wind: 17mph
Humidity: 54%   Direction: 170°S
Pressure: 30"   Gusts: 22mph
Location:  38.24°N, 93.38°W
Report Text: KGLY 281615Z AUTO 17015G19KT 3SM HZ CLR 12/03 A3000 RMK AO2
Loading
Personal Weather Stations






























Interactive Weather Map New forecast layout! Learn more

10-Day Weather Forecast

Advertisements
Track Severe Weather on mobile